Time;durP1;ratioP1;P1;durP2;ratioP2;P2;SDS_P1;SDS_P2;PMS_P1;PMS_P2;Temp;Humidity;BMP_temperature;BMP_pressure;BME280_temperature;BME280_humidity;BME280_pressure;Samples;Min_cycle;Max_cycle;Signal;HPM_P1;HPM_P2
2023/01/20 00:02:03;;;;;;;2.67;0.50;;;;;;;;;;4792451;29;20523;-79
2023/01/20 00:04:33;;;;;;;1.88;0.70;;;;;;;;;;4799688;29;20499;-75
2023/01/20 00:07:04;;;;;;;0.98;0.50;;;;;;;;;;4802555;29;20062;-74
2023/01/20 00:09:35;;;;;;;1.55;0.60;;;;;;;;;;4801052;29;20047;-74
2023/01/20 00:12:06;;;;;;;4.03;0.45;;;;;;;;;;4793645;29;20047;-75
2023/01/20 00:14:35;;;;;;;4.05;0.80;;;;;;;;;;4801389;29;20050;-74
2023/01/20 00:17:06;;;;;;;8.07;2.17;;;;;;;;;;4790985;29;20066;-76
2023/01/20 00:19:35;;;;;;;5.15;0.60;;;;;;;;;;4790511;29;20052;-79
2023/01/20 00:22:08;;;;;;;5.35;0.90;;;;;;;;;;4791751;29;20054;-79
2023/01/20 00:24:39;;;;;;;2.47;0.68;;;;;;;;;;4788705;29;20541;-77
2023/01/20 00:27:10;;;;;;;2.72;0.57;;;;;;;;;;4790742;29;20051;-77
2023/01/20 00:29:43;;;;;;;3.50;0.60;;;;;;;;;;4789469;29;20093;-78
2023/01/20 00:32:15;;;;;;;2.45;0.98;;;;;;;;;;4791182;29;20061;-76
2023/01/20 00:34:46;;;;;;;6.13;0.70;;;;;;;;;;4791945;29;20435;-77
2023/01/20 00:37:17;;;;;;;5.28;1.35;;;;;;;;;;4791583;29;20842;-77
2023/01/20 00:39:46;;;;;;;5.03;0.85;;;;;;;;;;4789777;29;20492;-75
2023/01/20 00:42:17;;;;;;;3.25;1.02;;;;;;;;;;4795456;29;20530;-76
2023/01/20 00:44:48;;;;;;;3.00;0.40;;;;;;;;;;4800443;29;20546;-75
2023/01/20 00:47:19;;;;;;;4.70;0.68;;;;;;;;;;4799718;29;20058;-74
2023/01/20 00:49:50;;;;;;;2.15;0.57;;;;;;;;;;4790238;29;20047;-73
2023/01/20 00:52:20;;;;;;;4.97;0.80;;;;;;;;;;4791780;29;20061;-75
2023/01/20 00:54:50;;;;;;;3.20;0.90;;;;;;;;;;4792897;29;20054;-73
2023/01/20 00:57:20;;;;;;;6.28;0.80;;;;;;;;;;4801080;29;20050;-75
2023/01/20 00:59:52;;;;;;;3.38;0.80;;;;;;;;;;4799429;29;20058;-74
2023/01/20 01:02:22;;;;;;;2.58;0.47;;;;;;;;;;4796432;29;20511;-76
2023/01/20 01:04:52;;;;;;;2.72;0.80;;;;;;;;;;4799196;29;20054;-77
2023/01/20 01:07:23;;;;;;;3.78;0.68;;;;;;;;;;4786890;29;20059;-78
2023/01/20 01:09:53;;;;;;;4.57;0.63;;;;;;;;;;4780835;29;20074;-77
2023/01/20 01:12:24;;;;;;;5.70;1.00;;;;;;;;;;4765873;30;20416;-75
2023/01/20 01:14:55;;;;;;;3.58;0.45;;;;;;;;;;4781263;30;20055;-75
2023/01/20 01:17:24;;;;;;;4.07;0.52;;;;;;;;;;4780107;30;20531;-75
2023/01/20 01:19:56;;;;;;;5.40;0.75;;;;;;;;;;4780042;30;20055;-75
2023/01/20 01:22:27;;;;;;;3.55;0.80;;;;;;;;;;4782357;30;20424;-79
2023/01/20 01:24:58;;;;;;;3.58;0.88;;;;;;;;;;4782095;29;20551;-76
2023/01/20 01:27:43;;;;;;;6.60;0.60;;;;;;;;;;4775152;29;20059;-75
2023/01/20 01:30:14;;;;;;;3.20;0.60;;;;;;;;;;4792119;29;20054;-76
2023/01/20 01:32:46;;;;;;;5.00;0.60;;;;;;;;;;4792215;29;20062;-76
2023/01/20 01:35:17;;;;;;;4.20;0.80;;;;;;;;;;4797910;29;20047;-77
2023/01/20 01:37:47;;;;;;;3.47;0.90;;;;;;;;;;4789994;29;20047;-76
2023/01/20 01:40:18;;;;;;;4.70;0.70;;;;;;;;;;4790892;29;20776;-75
2023/01/20 01:42:50;;;;;;;3.88;0.93;;;;;;;;;;4788384;29;20400;-77
2023/01/20 01:45:23;;;;;;;6.43;0.98;;;;;;;;;;4789607;29;20050;-76
2023/01/20 01:48:01;;;;;;;4.53;0.73;;;;;;;;;;4791759;29;20047;-76
2023/01/20 01:50:40;;;;;;;4.00;1.05;;;;;;;;;;4790333;29;20051;-77
2023/01/20 01:53:13;;;;;;;3.10;0.40;;;;;;;;;;4791851;29;20051;-77
2023/01/20 01:55:55;;;;;;;3.13;0.70;;;;;;;;;;4789189;29;20073;-77
2023/01/20 01:58:31;;;;;;;3.72;0.82;;;;;;;;;;4791721;29;20063;-76
2023/01/20 02:01:02;;;;;;;7.00;1.63;;;;;;;;;;4789315;29;20062;-76
2023/01/20 02:03:44;;;;;;;5.97;0.80;;;;;;;;;;4790313;29;20063;-76
2023/01/20 02:06:16;;;;;;;4.32;1.30;;;;;;;;;;4791254;29;20059;-75
2023/01/20 02:08:48;;;;;;;5.70;0.75;;;;;;;;;;4791589;29;20055;-75
2023/01/20 02:11:18;;;;;;;1.50;0.60;;;;;;;;;;4789762;29;20047;-77
2023/01/20 02:13:49;;;;;;;3.83;0.65;;;;;;;;;;4762499;30;20048;-76
2023/01/20 02:16:43;;;;;;;6.45;0.70;;;;;;;;;;4762349;30;20066;-76
2023/01/20 02:19:35;;;;;;;6.03;0.73;;;;;;;;;;4763121;30;20059;-76
2023/01/20 02:22:23;;;;;;;2.88;0.70;;;;;;;;;;4763036;30;20135;-76
2023/01/20 02:25:13;;;;;;;4.80;0.80;;;;;;;;;;4763216;30;20067;-76
2023/01/20 02:27:52;;;;;;;2.65;0.63;;;;;;;;;;4764264;30;20047;-75
2023/01/20 02:31:05;;;;;;;3.75;0.60;;;;;;;;;;4763697;30;20063;-76
2023/01/20 02:33:41;;;;;;;4.88;0.60;;;;;;;;;;4725280;30;20060;-78
2023/01/20 02:36:32;;;;;;;3.65;0.70;;;;;;;;;;4725837;30;20057;-77
2023/01/20 02:39:25;;;;;;;5.20;0.70;;;;;;;;;;4762826;30;20060;-77
2023/01/20 02:42:08;;;;;;;2.55;0.47;;;;;;;;;;4763891;30;20056;-76
2023/01/20 02:45:13;;;;;;;10.52;2.17;;;;;;;;;;4763420;30;20052;-77
2023/01/20 02:47:50;;;;;;;2.08;0.52;;;;;;;;;;4776914;30;20052;-77
2023/01/20 02:50:40;;;;;;;5.82;0.73;;;;;;;;;;4763559;30;20067;-77
2023/01/20 02:53:13;;;;;;;8.13;1.20;;;;;;;;;;4763380;30;20048;-76
2023/01/20 02:55:49;;;;;;;4.40;1.00;;;;;;;;;;4776732;30;20068;-77
2023/01/20 02:58:29;;;;;;;1.25;0.73;;;;;;;;;;4763561;30;20052;-78
2023/01/20 03:01:06;;;;;;;3.50;0.50;;;;;;;;;;4765063;30;20067;-77
2023/01/20 03:03:40;;;;;;;5.43;0.75;;;;;;;;;;4766563;30;20408;-77
2023/01/20 03:06:17;;;;;;;5.00;0.77;;;;;;;;;;4766097;30;20059;-77
2023/01/20 03:08:51;;;;;;;4.45;0.88;;;;;;;;;;4767060;30;20063;-78
2023/01/20 03:11:22;;;;;;;6.40;0.90;;;;;;;;;;4766880;30;20389;-78
2023/01/20 03:14:08;;;;;;;2.40;0.47;;;;;;;;;;4766681;30;20067;-78
2023/01/20 03:16:39;;;;;;;1.42;0.63;;;;;;;;;;4767073;30;20051;-77
2023/01/20 03:19:11;;;;;;;2.28;0.60;;;;;;;;;;4766973;30;20055;-76
2023/01/20 03:21:41;;;;;;;1.63;0.50;;;;;;;;;;4779888;30;20386;-77
2023/01/20 03:24:12;;;;;;;5.38;0.60;;;;;;;;;;4766177;30;20059;-76
2023/01/20 03:26:44;;;;;;;1.45;0.55;;;;;;;;;;4766730;30;20052;-77
2023/01/20 03:29:17;;;;;;;2.85;0.73;;;;;;;;;;4766509;30;20450;-75
2023/01/20 03:31:57;;;;;;;3.00;1.00;;;;;;;;;;4766480;30;20048;-77
2023/01/20 03:34:32;;;;;;;4.65;1.23;;;;;;;;;;4766571;30;20509;-76
2023/01/20 03:37:04;;;;;;;2.08;0.75;;;;;;;;;;4766562;30;20056;-76
2023/01/20 03:39:39;;;;;;;3.13;0.60;;;;;;;;;;4766755;30;20055;-76
2023/01/20 03:42:22;;;;;;;3.03;0.55;;;;;;;;;;4768022;30;20043;-76
2023/01/20 03:45:18;;;;;;;1.75;0.50;;;;;;;;;;4768820;30;20052;-75
2023/01/20 03:48:23;;;;;;;3.38;0.50;;;;;;;;;;4769653;30;20051;-75
2023/01/20 03:51:34;;;;;;;2.35;0.77;;;;;;;;;;4766947;30;20412;-75
2023/01/20 03:54:10;;;;;;;5.00;0.63;;;;;;;;;;4711468;30;20064;-76
2023/01/20 03:56:45;;;;;;;;;;;;;;;;;;4760751;30;20421;-77
2023/01/20 03:59:19;;;;;;;3.33;0.88;;;;;;;;;;4766340;30;19933;-76
2023/01/20 04:01:52;;;;;;;3.95;0.68;;;;;;;;;;4765809;30;20078;-77
2023/01/20 04:04:23;;;;;;;2.22;0.55;;;;;;;;;;4766418;30;20511;-76
2023/01/20 04:06:53;;;;;;;4.05;0.52;;;;;;;;;;4766183;30;20060;-77
2023/01/20 04:09:30;;;;;;;3.80;0.80;;;;;;;;;;4766290;30;20048;-76
2023/01/20 04:12:02;;;;;;;4.63;0.75;;;;;;;;;;4765913;30;20055;-77
2023/01/20 04:14:34;;;;;;;4.25;1.48;;;;;;;;;;4765784;30;20072;-76
2023/01/20 04:17:06;;;;;;;2.25;0.50;;;;;;;;;;4765733;30;20043;-77
2023/01/20 04:19:37;;;;;;;5.00;0.85;;;;;;;;;;4766056;30;20063;-76
2023/01/20 04:22:31;;;;;;;6.80;0.93;;;;;;;;;;4765476;30;20060;-78
2023/01/20 04:25:19;;;;;;;1.90;0.68;;;;;;;;;;4765727;30;20055;-76
2023/01/20 04:27:50;;;;;;;4.25;0.88;;;;;;;;;;4765186;30;20056;-77
2023/01/20 04:30:20;;;;;;;3.33;0.50;;;;;;;;;;4765471;30;20059;-77
2023/01/20 04:32:52;;;;;;;3.60;0.80;;;;;;;;;;4766002;30;20060;-77
2023/01/20 04:35:22;;;;;;;5.53;1.15;;;;;;;;;;4765476;30;20056;-77
2023/01/20 04:37:52;;;;;;;4.47;0.80;;;;;;;;;;4766100;30;20052;-76
2023/01/20 04:40:23;;;;;;;3.17;0.90;;;;;;;;;;4765460;30;20532;-76
2023/01/20 04:42:54;;;;;;;2.15;0.70;;;;;;;;;;4765514;30;20062;-76
2023/01/20 04:45:31;;;;;;;6.75;1.00;;;;;;;;;;4765134;30;20531;-76
2023/01/20 04:48:06;;;;;;;4.88;0.70;;;;;;;;;;4765095;30;20060;-76
2023/01/20 04:50:40;;;;;;;4.93;0.80;;;;;;;;;;4764995;30;20055;-77
2023/01/20 04:53:15;;;;;;;2.85;0.95;;;;;;;;;;4778599;30;20067;-76
2023/01/20 04:55:46;;;;;;;3.83;0.73;;;;;;;;;;4765100;30;20436;-76
2023/01/20 04:58:16;;;;;;;5.88;0.80;;;;;;;;;;4764744;30;20062;-77
2023/01/20 05:00:46;;;;;;;5.75;0.93;;;;;;;;;;4765610;30;20058;-77
2023/01/20 05:03:18;;;;;;;3.58;0.60;;;;;;;;;;4763623;30;20055;-76
2023/01/20 05:05:56;;;;;;;6.82;0.68;;;;;;;;;;4765288;30;20066;-77
2023/01/20 05:08:26;;;;;;;3.90;1.00;;;;;;;;;;4765427;30;20425;-77
2023/01/20 05:10:56;;;;;;;4.10;0.70;;;;;;;;;;4764534;30;20551;-77
2023/01/20 05:13:26;;;;;;;3.85;0.60;;;;;;;;;;4764741;30;20052;-76
2023/01/20 05:15:57;;;;;;;4.72;0.80;;;;;;;;;;4764655;30;20059;-77
2023/01/20 05:18:30;;;;;;;5.65;0.70;;;;;;;;;;4764591;30;20055;-76
2023/01/20 05:21:00;;;;;;;5.97;0.70;;;;;;;;;;4764523;30;20063;-76
2023/01/20 05:23:31;;;;;;;2.30;1.00;;;;;;;;;;4763593;30;20158;-77
2023/01/20 05:26:01;;;;;;;4.57;0.80;;;;;;;;;;4764485;30;20071;-76
2023/01/20 05:28:32;;;;;;;4.65;0.85;;;;;;;;;;4764500;30;20055;-77
2023/01/20 05:31:01;;;;;;;2.80;0.80;;;;;;;;;;4764552;30;20059;-76
2023/01/20 05:33:32;;;;;;;1.63;0.52;;;;;;;;;;4764296;30;20079;-76
2023/01/20 05:36:06;;;;;;;7.28;1.00;;;;;;;;;;4765362;30;20052;-76
2023/01/20 05:38:37;;;;;;;3.17;0.70;;;;;;;;;;4764734;30;20061;-76
2023/01/20 05:41:08;;;;;;;4.85;0.85;;;;;;;;;;4764157;30;20523;-77
2023/01/20 05:43:39;;;;;;;1.90;0.90;;;;;;;;;;4764555;30;20396;-77
2023/01/20 05:46:09;;;;;;;8.50;0.80;;;;;;;;;;4764022;30;20039;-76
2023/01/20 05:48:39;;;;;;;5.13;1.05;;;;;;;;;;4764264;30;20066;-76
2023/01/20 05:51:11;;;;;;;7.07;1.15;;;;;;;;;;4764283;30;20444;-76
2023/01/20 05:53:42;;;;;;;4.70;0.70;;;;;;;;;;4764423;30;20071;-76
2023/01/20 05:56:14;;;;;;;2.55;0.50;;;;;;;;;;4763829;30;20047;-76
2023/01/20 05:58:45;;;;;;;4.57;0.98;;;;;;;;;;4764117;30;20062;-76
2023/01/20 06:01:16;;;;;;;6.40;0.90;;;;;;;;;;4764213;30;20044;-76
2023/01/20 06:03:46;;;;;;;4.53;0.90;;;;;;;;;;4764553;30;20062;-77
2023/01/20 06:06:17;;;;;;;5.03;0.93;;;;;;;;;;4763883;30;20058;-76
2023/01/20 06:08:50;;;;;;;2.17;0.65;;;;;;;;;;4763959;30;20056;-77
2023/01/20 06:11:21;;;;;;;2.65;0.40;;;;;;;;;;4763887;30;20047;-77
2023/01/20 06:13:51;;;;;;;6.55;1.67;;;;;;;;;;4764214;30;20477;-76
2023/01/20 06:16:22;;;;;;;3.85;1.17;;;;;;;;;;4763733;30;20051;-77
2023/01/20 06:18:52;;;;;;;3.22;0.80;;;;;;;;;;4777021;30;20059;-76
2023/01/20 06:21:23;;;;;;;2.53;0.77;;;;;;;;;;4763950;30;20055;-76
2023/01/20 06:23:55;;;;;;;4.55;0.52;;;;;;;;;;4763136;30;20083;-75
2023/01/20 06:26:26;;;;;;;3.10;0.90;;;;;;;;;;4763947;30;20059;-76
2023/01/20 06:29:02;;;;;;;4.20;0.70;;;;;;;;;;4763601;30;20052;-76
2023/01/20 06:31:32;;;;;;;5.90;1.00;;;;;;;;;;4763497;30;20428;-76
2023/01/20 06:34:02;;;;;;;4.00;0.80;;;;;;;;;;4763586;30;20070;-77
2023/01/20 06:36:33;;;;;;;7.32;0.60;;;;;;;;;;4767782;30;20059;-77
2023/01/20 06:39:04;;;;;;;3.53;0.93;;;;;;;;;;4767311;30;20059;-76
2023/01/20 06:41:34;;;;;;;3.60;0.80;;;;;;;;;;4780801;30;20547;-77
2023/01/20 06:44:06;;;;;;;4.50;0.73;;;;;;;;;;4767274;30;20059;-76
2023/01/20 06:46:37;;;;;;;5.93;1.00;;;;;;;;;;4767145;30;20516;-77
2023/01/20 06:49:06;;;;;;;4.72;0.80;;;;;;;;;;4767052;30;20056;-76
2023/01/20 06:51:37;;;;;;;6.95;0.80;;;;;;;;;;4767424;30;20129;-77
2023/01/20 06:54:09;;;;;;;4.38;1.05;;;;;;;;;;4767432;30;20054;-76
2023/01/20 06:56:40;;;;;;;2.97;0.82;;;;;;;;;;4767706;30;20067;-77
2023/01/20 06:59:11;;;;;;;3.47;0.95;;;;;;;;;;4766634;30;20063;-76
2023/01/20 07:01:42;;;;;;;2.67;0.90;;;;;;;;;;4767335;30;20094;-77
2023/01/20 07:04:13;;;;;;;5.55;0.65;;;;;;;;;;4766919;30;20047;-76
2023/01/20 07:06:44;;;;;;;3.05;0.60;;;;;;;;;;4767154;30;20063;-76
2023/01/20 07:09:15;;;;;;;2.88;0.80;;;;;;;;;;4767332;30;20503;-77
2023/01/20 07:11:44;;;;;;;5.50;1.05;;;;;;;;;;4766611;30;20044;-76
2023/01/20 07:14:15;;;;;;;2.65;0.60;;;;;;;;;;4766872;30;20536;-76
2023/01/20 07:16:46;;;;;;;3.22;0.70;;;;;;;;;;4766952;30;20055;-75
2023/01/20 07:19:18;;;;;;;5.40;0.60;;;;;;;;;;4767017;30;20059;-76
2023/01/20 07:21:48;;;;;;;1.95;1.00;;;;;;;;;;4766444;30;20048;-76
2023/01/20 07:24:18;;;;;;;3.45;0.47;;;;;;;;;;4766110;30;20067;-75
2023/01/20 07:26:51;;;;;;;3.17;0.40;;;;;;;;;;4779708;29;20071;-75
2023/01/20 07:29:22;;;;;;;1.20;0.82;;;;;;;;;;4767378;30;20056;-76
2023/01/20 07:31:52;;;;;;;2.50;0.98;;;;;;;;;;4780027;30;20127;-76
2023/01/20 07:34:22;;;;;;;0.98;0.50;;;;;;;;;;4766482;30;20052;-76
2023/01/20 07:36:52;;;;;;;1.85;0.88;;;;;;;;;;4766301;30;20058;-75
2023/01/20 07:39:24;;;;;;;3.47;0.95;;;;;;;;;;4765328;30;20568;-76
2023/01/20 07:41:54;;;;;;;8.05;1.05;;;;;;;;;;4766128;30;20048;-76
2023/01/20 07:44:25;;;;;;;5.55;0.95;;;;;;;;;;4766458;30;20043;-76
2023/01/20 07:46:57;;;;;;;5.32;1.10;;;;;;;;;;4778307;29;20068;-75
2023/01/20 07:49:28;;;;;;;4.47;1.00;;;;;;;;;;4766748;30;20063;-76
2023/01/20 07:51:59;;;;;;;6.03;0.75;;;;;;;;;;4766328;30;20055;-76
2023/01/20 07:54:29;;;;;;;3.38;0.80;;;;;;;;;;4764863;30;20083;-77
2023/01/20 07:57:00;;;;;;;2.10;0.50;;;;;;;;;;4766421;30;20052;-76
2023/01/20 07:59:30;;;;;;;4.38;0.60;;;;;;;;;;4765859;30;20650;-76
2023/01/20 08:02:00;;;;;;;3.78;0.80;;;;;;;;;;4765903;30;20448;-76
2023/01/20 08:04:32;;;;;;;5.00;0.63;;;;;;;;;;4766293;30;20516;-77
2023/01/20 08:07:03;;;;;;;3.08;0.95;;;;;;;;;;4766062;30;20500;-76
2023/01/20 08:09:32;;;;;;;3.15;0.63;;;;;;;;;;4779525;30;20150;-77
2023/01/20 08:12:03;;;;;;;3.45;0.90;;;;;;;;;;4765550;30;20420;-77
2023/01/20 08:14:34;;;;;;;4.63;0.70;;;;;;;;;;4766061;30;20056;-77
2023/01/20 08:17:06;;;;;;;3.92;0.80;;;;;;;;;;4765296;30;20055;-76
2023/01/20 08:19:38;;;;;;;2.83;0.90;;;;;;;;;;4778881;30;20067;-75
2023/01/20 08:22:08;;;;;;;1.67;0.70;;;;;;;;;;4765678;30;20055;-77
2023/01/20 08:24:39;;;;;;;4.57;0.90;;;;;;;;;;4778831;29;20051;-77
2023/01/20 08:27:16;;;;;;;1.45;0.50;;;;;;;;;;4765834;30;20982;-77
2023/01/20 08:29:47;;;;;;;2.20;0.82;;;;;;;;;;4766679;30;20063;-76
2023/01/20 08:32:17;;;;;;;3.30;0.80;;;;;;;;;;4766053;30;20051;-77
2023/01/20 08:34:48;;;;;;;1.80;0.73;;;;;;;;;;4765544;30;20059;-77
2023/01/20 08:37:19;;;;;;;3.90;1.10;;;;;;;;;;4765282;30;20052;-77
2023/01/20 08:39:50;;;;;;;3.47;0.98;;;;;;;;;;4765208;30;20052;-77
2023/01/20 08:42:19;;;;;;;6.95;1.20;;;;;;;;;;4765268;30;20051;-76
2023/01/20 08:44:53;;;;;;;7.07;1.17;;;;;;;;;;4778735;30;20394;-77
2023/01/20 08:47:24;;;;;;;3.03;0.60;;;;;;;;;;4763474;30;20124;-76
2023/01/20 08:49:55;;;;;;;4.45;0.88;;;;;;;;;;4765008;30;20052;-76
2023/01/20 08:52:26;;;;;;;2.53;0.63;;;;;;;;;;4765186;30;20051;-77
2023/01/20 08:54:57;;;;;;;6.80;1.10;;;;;;;;;;4765167;30;20108;-76
2023/01/20 08:57:28;;;;;;;4.28;0.73;;;;;;;;;;4765267;30;20048;-76
2023/01/20 08:59:59;;;;;;;3.40;0.60;;;;;;;;;;4764451;30;20052;-77
2023/01/20 09:02:30;;;;;;;5.05;1.10;;;;;;;;;;4765156;30;20048;-78
2023/01/20 09:05:00;;;;;;;1.65;0.70;;;;;;;;;;4765477;30;20055;-76
2023/01/20 09:07:30;;;;;;;4.55;0.60;;;;;;;;;;4764799;30;20070;-76
2023/01/20 09:10:01;;;;;;;2.75;1.20;;;;;;;;;;4764612;30;20060;-77
2023/01/20 09:12:32;;;;;;;3.25;1.20;;;;;;;;;;4765081;30;20812;-77
2023/01/20 09:15:06;;;;;;;4.10;1.10;;;;;;;;;;4764580;30;20062;-78
2023/01/20 09:17:36;;;;;;;4.28;1.10;;;;;;;;;;4764220;30;20062;-77
2023/01/20 09:20:07;;;;;;;2.40;1.13;;;;;;;;;;4764983;30;20115;-77
2023/01/20 09:22:39;;;;;;;2.72;0.77;;;;;;;;;;4764227;30;20048;-78
2023/01/20 09:25:10;;;;;;;5.72;0.90;;;;;;;;;;4764785;30;20076;-78
2023/01/20 09:27:40;;;;;;;5.00;0.80;;;;;;;;;;4764929;30;20070;-77
2023/01/20 09:30:11;;;;;;;5.28;1.30;;;;;;;;;;4764331;30;20059;-78
2023/01/20 09:32:44;;;;;;;2.75;0.95;;;;;;;;;;4764537;30;20048;-77
2023/01/20 09:35:15;;;;;;;7.47;1.48;;;;;;;;;;4763939;30;20051;-77
2023/01/20 09:44:17;;;;;;;5.00;2.08;;;;;;;;;;4764252;30;20416;-77
2023/01/20 09:53:04;;;;;;;4.82;1.45;;;;;;;;;;4764239;30;20056;-80
2023/01/20 09:55:46;;;;;;;3.45;1.33;;;;;;;;;;4764229;30;20051;-77
2023/01/20 09:58:33;;;;;;;2.67;1.15;;;;;;;;;;4763898;30;20424;-77
2023/01/20 10:01:54;;;;;;;2.75;0.80;;;;;;;;;;4764072;30;20047;-77
2023/01/20 10:04:38;;;;;;;4.18;1.00;;;;;;;;;;4725960;30;20563;-77
2023/01/20 10:07:30;;;;;;;6.35;1.00;;;;;;;;;;4725981;30;20057;-77
2023/01/20 10:10:24;;;;;;;6.78;1.08;;;;;;;;;;4755523;30;20064;-82
2023/01/20 10:13:00;;;;;;;7.20;1.20;;;;;;;;;;4764246;30;20064;-77
2023/01/20 10:15:36;;;;;;;8.27;1.02;;;;;;;;;;4764038;30;20056;-78
2023/01/20 10:18:26;;;;;;;9.85;1.08;;;;;;;;;;4763585;30;20615;-77
2023/01/20 10:21:01;;;;;;;5.45;1.00;;;;;;;;;;4763712;30;20051;-77
2023/01/20 10:23:48;;;;;;;8.32;1.00;;;;;;;;;;4777200;29;20062;-78
2023/01/20 10:26:33;;;;;;;9.32;1.10;;;;;;;;;;4799665;29;20066;-77
2023/01/20 10:29:06;;;;;;;5.55;0.93;;;;;;;;;;4799260;29;20066;-77
2023/01/20 10:31:49;;;;;;;7.32;1.08;;;;;;;;;;4783069;29;20062;-77
2023/01/20 10:34:21;;;;;;;3.17;1.20;;;;;;;;;;4795196;29;20397;-77
2023/01/20 10:37:07;;;;;;;4.00;0.93;;;;;;;;;;4799427;29;20054;-80
2023/01/20 10:39:58;;;;;;;3.17;0.82;;;;;;;;;;4799234;29;20058;-76
2023/01/20 10:42:29;;;;;;;69.30;61.97;;;;;;;;;;4792452;29;20420;-76
2023/01/20 10:45:00;;;;;;;10.60;1.80;;;;;;;;;;4787843;29;20051;-80
2023/01/20 10:47:50;;;;;;;5.50;2.00;;;;;;;;;;4781672;29;20079;-77
2023/01/20 10:50:39;;;;;;;7.88;2.17;;;;;;;;;;4767100;30;20059;-76
2023/01/20 10:53:50;;;;;;;7.22;1.27;;;;;;;;;;4783961;29;20184;-76
2023/01/20 10:56:30;;;;;;;4.28;1.75;;;;;;;;;;4781182;30;20055;-77
2023/01/20 10:59:12;;;;;;;6.22;1.20;;;;;;;;;;4780651;30;20055;-77
2023/01/20 11:01:49;;;;;;;7.25;1.20;;;;;;;;;;4781673;30;20047;-77
2023/01/20 11:04:34;;;;;;;2.95;1.40;;;;;;;;;;4780902;30;20930;-79
2023/01/20 11:07:11;;;;;;;3.92;1.40;;;;;;;;;;4765676;30;20058;-80
2023/01/20 11:09:43;;;;;;;5.63;1.52;;;;;;;;;;4781445;30;20097;-78
2023/01/20 11:12:21;;;;;;;6.38;2.67;;;;;;;;;;4781120;30;20047;-78
2023/01/20 11:14:54;;;;;;;4.80;1.30;;;;;;;;;;4783568;29;20059;-78
2023/01/20 11:17:25;;;;;;;5.22;1.70;;;;;;;;;;4794987;29;20055;-77
2023/01/20 11:19:57;;;;;;;8.98;1.67;;;;;;;;;;4798910;29;20055;-76
2023/01/20 11:22:36;;;;;;;7.13;1.85;;;;;;;;;;4801174;29;20051;-81
2023/01/20 11:25:23;;;;;;;8.38;1.60;;;;;;;;;;4794749;29;20055;-76
2023/01/20 11:27:55;;;;;;;3.47;1.15;;;;;;;;;;4798651;29;20067;-78
2023/01/20 11:30:30;;;;;;;8.68;1.80;;;;;;;;;;4792126;29;20054;-78
2023/01/20 11:33:27;;;;;;;6.88;1.52;;;;;;;;;;4766651;30;20517;-78
2023/01/20 11:36:04;;;;;;;4.00;1.80;;;;;;;;;;4764436;30;20067;-77
2023/01/20 11:38:43;;;;;;;3.50;1.20;;;;;;;;;;4766628;30;20048;-77
2023/01/20 11:41:25;;;;;;;4.70;1.40;;;;;;;;;;4766554;30;20059;-78
2023/01/20 11:43:58;;;;;;;3.35;1.00;;;;;;;;;;4766398;30;20505;-81
2023/01/20 11:46:36;;;;;;;4.28;1.23;;;;;;;;;;4764920;30;20051;-78
2023/01/20 11:49:21;;;;;;;1.85;1.00;;;;;;;;;;4766399;30;20058;-76
2023/01/20 11:51:58;;;;;;;3.40;1.10;;;;;;;;;;4766617;30;20067;-77
2023/01/20 11:54:30;;;;;;;3.20;1.58;;;;;;;;;;4766616;30;20044;-77
2023/01/20 11:57:09;;;;;;;3.75;1.50;;;;;;;;;;4766196;30;20048;-84
2023/01/20 11:59:48;;;;;;;4.40;1.30;;;;;;;;;;4766153;30;20051;-80
2023/01/20 12:02:22;;;;;;;4.47;1.67;;;;;;;;;;4764128;30;20380;-78
2023/01/20 12:05:09;;;;;;;7.28;1.80;;;;;;;;;;4766473;30;20508;-79
2023/01/20 12:07:48;;;;;;;9.40;1.60;;;;;;;;;;4766305;30;20052;-77
2023/01/20 12:10:38;;;;;;;7.40;1.90;;;;;;;;;;4765872;30;20070;-78
2023/01/20 12:13:20;;;;;;;3.25;1.70;;;;;;;;;;4765951;30;20071;-76
2023/01/20 12:15:55;;;;;;;5.80;1.90;;;;;;;;;;4765850;30;20047;-78
2023/01/20 12:18:36;;;;;;;4.00;1.80;;;;;;;;;;4765824;30;20052;-77
2023/01/20 12:21:18;;;;;;;7.57;1.77;;;;;;;;;;4766773;30;20055;-77
2023/01/20 12:23:55;;;;;;;3.80;1.85;;;;;;;;;;4765642;30;20139;-78
2023/01/20 12:26:27;;;;;;;3.22;1.80;;;;;;;;;;4764675;30;20055;-79
2023/01/20 12:29:17;;;;;;;3.53;1.95;;;;;;;;;;4765788;30;20059;-77
2023/01/20 12:31:48;;;;;;;4.03;2.08;;;;;;;;;;4763734;30;20611;-76
2023/01/20 12:34:38;;;;;;;3.40;1.92;;;;;;;;;;4765506;30;20501;-78
2023/01/20 12:37:46;;;;;;;6.57;1.95;;;;;;;;;;4765552;30;20445;-79
2023/01/20 12:40:27;;;;;;;4.65;1.80;;;;;;;;;;4760048;30;20420;-78
2023/01/20 12:43:34;;;;;;;2.70;1.80;;;;;;;;;;4765089;30;20058;-77
2023/01/20 12:46:43;;;;;;;4.80;2.83;;;;;;;;;;4765886;30;20070;-78
2023/01/20 12:49:30;;;;;;;3.47;1.90;;;;;;;;;;4764339;30;20423;-76
2023/01/20 12:52:01;;;;;;;;;;;;;;;;;;4765387;30;20504;-75
2023/01/20 12:54:36;;;;;;;2.45;1.02;;;;;;;;;;4765289;30;19929;-78
2023/01/20 12:57:22;;;;;;;1.52;1.35;;;;;;;;;;4765066;30;20436;-79
2023/01/20 13:00:27;;;;;;;2.67;1.10;;;;;;;;;;4764883;30;20059;-77
2023/01/20 13:03:22;;;;;;;2.88;1.15;;;;;;;;;;4760882;30;20071;-76
2023/01/20 13:06:20;;;;;;;3.95;1.20;;;;;;;;;;4764619;30;20066;-77
2023/01/20 13:09:16;;;;;;;2.25;1.20;;;;;;;;;;4765057;30;20051;-77
2023/01/20 13:12:22;;;;;;;2.50;1.30;;;;;;;;;;4764676;30;20055;-79
2023/01/20 13:15:31;;;;;;;2.63;0.93;;;;;;;;;;4764541;30;20046;-78
2023/01/20 13:18:10;;;;;;;3.35;0.90;;;;;;;;;;4769931;30;20078;-77
2023/01/20 13:20:47;;;;;;;2.15;1.20;;;;;;;;;;4765038;30;20070;-77
2023/01/20 13:23:26;;;;;;;1.30;0.88;;;;;;;;;;4763935;30;20059;-79
2023/01/20 13:25:58;;;;;;;4.28;1.23;;;;;;;;;;4764555;30;20071;-79
2023/01/20 13:28:30;;;;;;;3.15;1.45;;;;;;;;;;4764207;30;20052;-77
2023/01/20 13:31:21;;;;;;;3.83;0.88;;;;;;;;;;4762462;30;20082;-77
2023/01/20 13:33:52;;;;;;;5.93;1.30;;;;;;;;;;4764341;30;20059;-78
2023/01/20 13:36:23;;;;;;;2.35;1.10;;;;;;;;;;4762594;30;20063;-77
2023/01/20 13:39:29;;;;;;;1.65;1.00;;;;;;;;;;4764753;30;20059;-75
2023/01/20 13:42:00;;;;;;;2.97;1.13;;;;;;;;;;4764683;30;20055;-77
2023/01/20 13:44:39;;;;;;;1.63;0.82;;;;;;;;;;4764192;30;20044;-77
2023/01/20 13:47:10;;;;;;;1.92;0.98;;;;;;;;;;4763906;30;20059;-77
2023/01/20 13:49:49;;;;;;;5.00;1.70;;;;;;;;;;4763523;30;20080;-78
2023/01/20 13:52:52;;;;;;;1.67;0.80;;;;;;;;;;4764522;30;20056;-76
2023/01/20 13:55:27;;;;;;;3.13;1.25;;;;;;;;;;4762897;30;20071;-77
2023/01/20 13:57:58;;;;;;;5.47;1.20;;;;;;;;;;4747220;30;20685;-77
2023/01/20 14:00:28;;;;;;;3.88;1.00;;;;;;;;;;4764043;30;20040;-78
2023/01/20 14:03:11;;;;;;;2.15;0.80;;;;;;;;;;4764054;30;20059;-77
2023/01/20 14:05:41;;;;;;;4.03;0.93;;;;;;;;;;4762743;30;20055;-78
2023/01/20 14:08:14;;;;;;;1.83;0.82;;;;;;;;;;4763784;30;20067;-77
2023/01/20 14:10:48;;;;;;;2.33;1.17;;;;;;;;;;4763839;30;20420;-78
2023/01/20 14:13:21;;;;;;;2.20;0.85;;;;;;;;;;4747772;30;20051;-77
2023/01/20 14:15:54;;;;;;;6.65;1.17;;;;;;;;;;4764028;30;20051;-77
2023/01/20 14:18:26;;;;;;;1.92;0.80;;;;;;;;;;4763536;30;20060;-78
2023/01/20 14:21:01;;;;;;;3.50;0.70;;;;;;;;;;4763546;30;20055;-78
2023/01/20 14:23:38;;;;;;;1.10;0.88;;;;;;;;;;4761722;30;20067;-78
2023/01/20 14:26:19;;;;;;;6.85;0.93;;;;;;;;;;4763888;30;20075;-79
2023/01/20 14:28:51;;;;;;;2.28;0.68;;;;;;;;;;4764112;30;20075;-77
2023/01/20 14:31:39;;;;;;;2.33;0.80;;;;;;;;;;4763645;30;20780;-77
2023/01/20 14:34:27;;;;;;;1.10;0.60;;;;;;;;;;4763702;30;20060;-78
2023/01/20 14:37:02;;;;;;;5.75;1.20;;;;;;;;;;4763613;30;20059;-79
2023/01/20 14:39:32;;;;;;;;;;;;;;;;;;4763811;30;20052;-78
2023/01/20 14:42:02;;;;;;;2.83;1.17;;;;;;;;;;4763994;30;19926;-77
2023/01/20 14:44:34;;;;;;;2.22;0.93;;;;;;;;;;4763905;30;20058;-79
2023/01/20 14:47:04;;;;;;;0.80;0.70;;;;;;;;;;4763974;30;20623;-77
2023/01/20 14:49:42;;;;;;;1.95;0.80;;;;;;;;;;4763842;30;20060;-80
2023/01/20 14:52:24;;;;;;;3.90;1.80;;;;;;;;;;4763754;30;20527;-77
2023/01/20 14:54:55;;;;;;;1.88;0.93;;;;;;;;;;4776946;30;20052;-76
2023/01/20 14:57:26;;;;;;;1.55;0.70;;;;;;;;;;4767383;30;20051;-76
2023/01/20 15:00:08;;;;;;;2.55;1.10;;;;;;;;;;4767323;30;20051;-78
2023/01/20 15:02:46;;;;;;;4.43;1.00;;;;;;;;;;4767095;30;20051;-78
2023/01/20 15:05:40;;;;;;;3.85;1.38;;;;;;;;;;4766744;30;20059;-75
2023/01/20 15:08:10;;;;;;;2.28;1.08;;;;;;;;;;4767024;30;20530;-79
2023/01/20 15:10:42;;;;;;;2.92;0.90;;;;;;;;;;4766671;30;20055;-77
2023/01/20 15:13:25;;;;;;;1.83;0.75;;;;;;;;;;4767218;30;20060;-77
2023/01/20 15:16:20;;;;;;;1.98;0.90;;;;;;;;;;4766896;30;20055;-76
2023/01/20 15:19:15;;;;;;;1.23;0.80;;;;;;;;;;4766414;30;20054;-76
2023/01/20 15:21:49;;;;;;;2.13;0.80;;;;;;;;;;4766423;30;20055;-76
2023/01/20 15:24:23;;;;;;;1.38;0.80;;;;;;;;;;4764854;30;20070;-79
2023/01/20 15:26:55;;;;;;;4.13;0.93;;;;;;;;;;4766180;30;20063;-79
2023/01/20 15:29:34;;;;;;;4.28;1.00;;;;;;;;;;4765954;30;20056;-77
2023/01/20 15:32:10;;;;;;;3.40;1.13;;;;;;;;;;4766631;30;20059;-76
2023/01/20 15:34:41;;;;;;;2.00;0.82;;;;;;;;;;4780231;30;20044;-78
2023/01/20 15:37:18;;;;;;;1.90;0.90;;;;;;;;;;4765928;30;20547;-80
2023/01/20 15:39:50;;;;;;;4.90;1.02;;;;;;;;;;4765546;30;20056;-77
2023/01/20 15:42:22;;;;;;;1.35;0.98;;;;;;;;;;4766414;30;20062;-77
2023/01/20 15:44:53;;;;;;;3.75;1.00;;;;;;;;;;4766475;30;20413;-79
2023/01/20 15:47:29;;;;;;;2.58;0.95;;;;;;;;;;4764672;30;20540;-75
2023/01/20 15:50:00;;;;;;;2.17;1.10;;;;;;;;;;4766214;30;20516;-75